createdAt,value
2019-05-06T00:02:06.592Z,41.30
2019-05-06T00:04:34.142Z,41.40
2019-05-06T00:07:00.916Z,41.30
2019-05-06T00:09:28.055Z,41.40
2019-05-06T00:11:55.280Z,41.40
2019-05-06T00:14:23.565Z,41.40
2019-05-06T00:16:49.570Z,41.40
2019-05-06T00:19:16.706Z,41.40
2019-05-06T00:21:44.333Z,41.40
2019-05-06T00:24:11.074Z,41.40
2019-05-06T00:26:46.968Z,41.40
2019-05-06T00:29:16.388Z,41.40
2019-05-06T00:31:44.046Z,41.50
2019-05-06T00:34:10.735Z,41.40
2019-05-06T00:36:37.831Z,41.50
2019-05-06T00:39:10.776Z,41.40
2019-05-06T00:41:37.961Z,41.50
2019-05-06T00:44:05.123Z,41.40
2019-05-06T00:46:34.255Z,41.40
2019-05-06T00:48:59.314Z,41.50
2019-05-06T00:51:26.474Z,41.40
2019-05-06T00:53:57.918Z,41.40
2019-05-06T00:56:25.043Z,41.70
2019-05-06T00:58:54.303Z,41.50
2019-05-06T01:01:28.682Z,41.50
2019-05-06T01:03:46.442Z,41.50
2019-05-06T01:06:14.193Z,41.50
2019-05-06T01:08:40.660Z,41.50
2019-05-06T01:11:07.775Z,41.50
2019-05-06T01:13:39.334Z,41.50
2019-05-06T01:16:06.688Z,41.50
2019-05-06T01:18:34.140Z,41.50
2019-05-06T01:21:06.716Z,41.50
2019-05-06T01:23:34.263Z,41.50
2019-05-06T01:26:01.071Z,41.60
2019-05-06T01:28:28.135Z,41.60
2019-05-06T01:30:55.255Z,41.50
2019-05-06T01:33:24.177Z,41.50
2019-05-06T01:35:49.600Z,41.60
2019-05-06T01:38:20.839Z,41.50
2019-05-06T01:40:54.562Z,41.50
2019-05-06T01:43:24.430Z,41.50
2019-05-06T01:45:53.518Z,41.50
2019-05-06T01:48:24.512Z,41.50
2019-05-06T01:50:50.491Z,41.60
2019-05-06T01:53:17.587Z,41.50
2019-05-06T01:55:44.739Z,41.50
2019-05-06T01:58:11.804Z,41.50
2019-05-06T02:00:39.555Z,41.50
2019-05-06T02:03:06.007Z,41.50
2019-05-06T02:05:33.674Z,41.50
2019-05-06T02:08:00.256Z,41.50
2019-05-06T02:10:27.344Z,41.50
2019-05-06T02:12:54.488Z,41.50
2019-05-06T02:15:23.399Z,41.50
2019-05-06T02:17:48.759Z,41.50
2019-05-06T02:20:15.858Z,41.60
2019-05-06T02:22:47.464Z,41.50
2019-05-06T02:25:19.117Z,41.60
2019-05-06T02:27:46.243Z,41.60
2019-05-06T02:30:19.903Z,41.50
2019-05-06T02:32:55.897Z,41.50
2019-05-06T02:35:26.589Z,41.60
2019-05-06T02:37:55.023Z,41.50
2019-05-06T02:40:24.527Z,41.60
2019-05-06T02:42:48.357Z,41.50
2019-05-06T02:45:15.547Z,41.70
2019-05-06T02:47:47.415Z,41.60
2019-05-06T02:50:16.439Z,41.60
2019-05-06T02:52:44.269Z,41.60
2019-05-06T02:55:12.938Z,41.60
2019-05-06T02:57:37.950Z,41.60
2019-05-06T03:00:06.289Z,41.60
2019-05-06T03:02:39.944Z,41.60
2019-05-06T03:05:04.030Z,41.60
2019-05-06T03:07:27.595Z,41.60
2019-05-06T03:09:54.670Z,41.60
2019-05-06T03:12:22.838Z,41.70
2019-05-06T03:14:49.016Z,41.60
2019-05-06T03:17:16.080Z,41.70
2019-05-06T03:19:45.933Z,41.60
2019-05-06T03:22:18.022Z,41.80
2019-05-06T03:24:47.327Z,41.70
2019-05-06T03:27:14.556Z,41.70
2019-05-06T03:29:44.452Z,41.70
2019-05-06T03:32:08.825Z,41.70
2019-05-06T03:34:58.659Z,41.70
2019-05-06T03:37:07.820Z,41.70
2019-05-06T03:39:30.131Z,41.70
2019-05-06T03:41:57.260Z,41.80
2019-05-06T03:44:24.344Z,41.70
2019-05-06T03:46:57.237Z,41.80
2019-05-06T03:49:24.755Z,41.70
2019-05-06T03:51:55.922Z,41.70
2019-05-06T03:54:18.982Z,41.70
2019-05-06T03:56:46.063Z,41.70
2019-05-06T03:59:13.451Z,42.40
2019-05-06T04:01:42.998Z,41.80
2019-05-06T04:04:07.620Z,41.80
2019-05-06T04:06:34.720Z,41.80
2019-05-06T04:09:03.604Z,41.80
2019-05-06T04:11:28.922Z,41.80
2019-05-06T04:13:55.998Z,41.80
2019-05-06T04:16:28.668Z,41.80
2019-05-06T04:19:03.820Z,41.80
2019-05-06T04:21:33.003Z,41.90
2019-05-06T04:24:14.006Z,41.80
2019-05-06T04:27:13.587Z,41.80
2019-05-06T04:29:42.670Z,41.80
2019-05-06T04:32:07.027Z,41.80
2019-05-06T04:34:34.125Z,41.80
2019-05-06T04:37:03.621Z,41.90
2019-05-06T04:39:28.423Z,41.80
2019-05-06T04:41:55.988Z,41.90
2019-05-06T04:44:23.932Z,41.90
2019-05-06T04:46:50.201Z,41.90
2019-05-06T04:49:17.337Z,41.90
2019-05-06T04:51:44.428Z,41.90
2019-05-06T04:54:13.497Z,41.90
2019-05-06T04:56:38.671Z,41.90
2019-05-06T04:59:06.233Z,41.80
2019-05-06T05:01:34.160Z,41.90
2019-05-06T05:04:03.288Z,41.90
2019-05-06T05:06:27.167Z,41.90
2019-05-06T05:08:54.288Z,42.00
2019-05-06T05:11:26.321Z,42.00
2019-05-06T05:14:02.615Z,41.90
2019-05-06T05:16:34.485Z,41.90
2019-05-06T05:19:04.834Z,41.90
2019-05-06T05:21:32.313Z,42.00
2019-05-06T05:23:59.080Z,41.90
2019-05-06T05:26:26.164Z,42.00
2019-05-06T05:28:53.345Z,42.00
2019-05-06T05:31:20.427Z,42.00
2019-05-06T05:33:47.608Z,42.00
2019-05-06T05:36:14.726Z,42.60
2019-05-06T05:38:42.846Z,43.20
2019-05-06T05:41:09.143Z,41.90
2019-05-06T05:43:42.405Z,42.90
2019-05-06T05:46:08.142Z,43.10
2019-05-06T05:48:42.213Z,43.60
2019-05-06T05:51:07.054Z,44.10
2019-05-06T05:53:34.290Z,44.00
2019-05-06T05:56:02.579Z,44.10
2019-05-06T05:58:28.532Z,44.00
2019-05-06T06:00:55.650Z,43.90
2019-05-06T06:03:22.739Z,43.30
2019-05-06T06:05:51.943Z,43.50
2019-05-06T06:08:17.014Z,42.80
2019-05-06T06:10:52.480Z,43.50
2019-05-06T06:13:17.531Z,43.50
2019-05-06T06:15:52.232Z,43.30
2019-05-06T06:18:25.806Z,43.10
2019-05-06T06:21:32.003Z,43.30
2019-05-06T06:23:59.635Z,42.80
2019-05-06T06:26:26.818Z,43.20
2019-05-06T06:28:53.971Z,43.00
2019-05-06T06:31:28.406Z,42.80
2019-05-06T06:33:59.583Z,42.80
2019-05-06T06:36:34.235Z,42.50
2019-05-06T06:39:08.015Z,42.60
2019-05-06T06:41:35.115Z,43.10
2019-05-06T06:44:03.606Z,42.00
2019-05-06T06:46:32.354Z,42.30
2019-05-06T06:48:58.111Z,42.20
2019-05-06T06:51:25.244Z,42.00
2019-05-06T06:53:52.951Z,41.90
2019-05-06T06:56:24.051Z,42.20
2019-05-06T06:58:56.957Z,41.80
2019-05-06T07:01:29.667Z,41.70
2019-05-06T07:04:06.793Z,42.10
2019-05-06T07:06:33.411Z,42.20
2019-05-06T07:09:02.611Z,42.20
2019-05-06T07:11:27.763Z,42.40
2019-05-06T07:13:54.868Z,42.30
2019-05-06T07:16:23.518Z,41.50
2019-05-06T07:18:49.259Z,41.80
2019-05-06T07:21:23.891Z,42.10
2019-05-06T07:23:52.995Z,42.40
2019-05-06T07:26:18.861Z,42.50
2019-05-06T07:28:45.983Z,42.40
2019-05-06T07:31:21.153Z,42.50
2019-05-06T07:33:42.705Z,42.50
2019-05-06T07:36:07.593Z,42.40
2019-05-06T07:38:34.656Z,42.50
2019-05-06T07:41:06.396Z,42.50
2019-05-06T07:43:42.091Z,42.50
2019-05-06T07:46:12.754Z,42.50
2019-05-06T07:48:39.963Z,43.10
2019-05-06T07:51:07.064Z,42.50
2019-05-06T07:53:34.195Z,42.50
2019-05-06T07:56:03.635Z,42.50
2019-05-06T07:58:28.483Z,42.40
2019-05-06T08:00:55.609Z,42.50
2019-05-06T08:03:22.792Z,42.50
2019-05-06T08:05:57.974Z,42.50
2019-05-06T08:08:17.038Z,42.50
2019-05-06T08:10:44.167Z,42.40
2019-05-06T08:13:12.993Z,42.40
2019-05-06T08:15:38.437Z,42.50
2019-05-06T08:18:05.555Z,42.40
2019-05-06T08:20:37.402Z,42.50
2019-05-06T08:23:12.511Z,42.50
2019-05-06T08:25:42.335Z,42.50
2019-05-06T08:28:07.149Z,42.40
2019-05-06T08:30:34.285Z,42.40
2019-05-06T08:33:02.198Z,42.40
2019-05-06T08:35:29.468Z,42.40
2019-05-06T08:37:56.643Z,42.40
2019-05-06T08:40:26.473Z,42.40
2019-05-06T08:42:53.037Z,42.50
2019-05-06T08:45:18.003Z,42.40
2019-05-06T08:47:45.150Z,42.40
2019-05-06T08:50:21.798Z,42.50
2019-05-06T08:53:24.392Z,42.40
2019-05-06T08:55:52.944Z,42.50
2019-05-06T08:58:18.371Z,42.50
2019-05-06T09:00:50.062Z,42.50
2019-05-06T09:03:17.147Z,42.40
2019-05-06T09:05:48.908Z,42.50
2019-05-06T09:08:16.075Z,42.50
2019-05-06T09:10:43.252Z,42.50
2019-05-06T09:13:12.221Z,42.50
2019-05-06T09:15:37.611Z,42.50
2019-05-06T09:18:04.763Z,42.50
2019-05-06T09:20:32.571Z,42.40
2019-05-06T09:22:59.146Z,42.40
2019-05-06T09:25:26.296Z,42.40
2019-05-06T09:28:02.547Z,42.50
2019-05-06T09:30:30.052Z,42.40
2019-05-06T09:32:57.196Z,42.50
2019-05-06T09:35:24.336Z,42.40
2019-05-06T09:37:53.457Z,42.50
2019-05-06T09:40:18.667Z,42.40
2019-05-06T09:42:45.811Z,42.30
2019-05-06T09:45:12.930Z,42.40
2019-05-06T09:47:44.313Z,42.40
2019-05-06T09:50:13.021Z,42.40
2019-05-06T09:52:42.509Z,42.40
2019-05-06T09:55:12.851Z,42.40
2019-05-06T09:57:44.771Z,42.40
2019-05-06T10:00:12.494Z,42.50
2019-05-06T10:02:39.132Z,42.40
2019-05-06T10:05:06.253Z,42.40
2019-05-06T10:07:33.880Z,42.50
2019-05-06T10:10:00.512Z,42.50
2019-05-06T10:12:27.703Z,42.40
2019-05-06T10:14:54.843Z,42.50
2019-05-06T10:17:21.939Z,42.50
2019-05-06T10:19:49.095Z,42.50
2019-05-06T10:22:16.207Z,42.50
2019-05-06T10:24:43.506Z,42.50
2019-05-06T10:27:12.125Z,42.50
2019-05-06T10:29:43.207Z,42.50
2019-05-06T10:32:14.553Z,42.50
2019-05-06T10:34:43.432Z,42.50
2019-05-06T10:37:18.937Z,42.40
2019-05-06T10:39:43.625Z,42.40
2019-05-06T10:42:13.095Z,42.40
2019-05-06T10:44:45.766Z,42.30
2019-05-06T10:47:12.880Z,42.30
2019-05-06T10:49:42.023Z,42.40
2019-05-06T10:52:12.837Z,42.40
2019-05-06T10:54:42.025Z,43.00
2019-05-06T10:57:12.511Z,42.40
2019-05-06T10:59:38.588Z,42.40
2019-05-06T11:02:12.508Z,42.40
2019-05-06T11:04:37.471Z,42.40
2019-05-06T11:07:04.616Z,42.40
2019-05-06T11:09:33.307Z,42.40
2019-05-06T11:11:58.964Z,42.40
2019-05-06T11:14:26.038Z,42.40
2019-05-06T11:16:53.151Z,42.40
2019-05-06T11:19:22.304Z,42.40
2019-05-06T11:21:47.495Z,42.30
2019-05-06T11:24:14.655Z,42.40
2019-05-06T11:26:43.051Z,42.40
2019-05-06T11:29:12.883Z,42.40
2019-05-06T11:31:47.594Z,42.40
2019-05-06T11:34:22.202Z,42.40
2019-05-06T11:36:52.415Z,42.40
2019-05-06T11:39:18.743Z,42.40
2019-05-06T11:42:05.364Z,42.40
2019-05-06T11:44:13.079Z,42.40
2019-05-06T11:46:40.251Z,42.40
2019-05-06T11:49:07.431Z,42.30
2019-05-06T11:51:34.635Z,42.30
2019-05-06T11:54:04.420Z,42.30
2019-05-06T11:56:28.916Z,42.40
2019-05-06T11:58:56.088Z,42.40
2019-05-06T12:01:26.768Z,42.40
2019-05-06T12:03:53.955Z,42.30
2019-05-06T12:06:22.678Z,42.30
2019-05-06T12:08:48.263Z,42.40
2019-05-06T12:11:15.427Z,42.30
2019-05-06T12:13:42.723Z,42.30
2019-05-06T12:16:09.808Z,42.30
2019-05-06T12:18:36.973Z,42.30
2019-05-06T12:21:11.315Z,42.30
2019-05-06T12:23:34.914Z,42.30
2019-05-06T12:25:58.413Z,42.20
2019-05-06T12:28:25.566Z,42.20
2019-05-06T12:30:52.668Z,42.50
2019-05-06T12:33:34.481Z,42.60
2019-05-06T12:36:03.833Z,42.60
2019-05-06T12:38:31.264Z,42.50
2019-05-06T12:40:59.827Z,42.50
2019-05-06T12:43:32.961Z,42.50
2019-05-06T12:46:02.920Z,42.60
2019-05-06T12:48:34.056Z,42.60
2019-05-06T12:51:03.070Z,42.50
2019-05-06T12:53:29.489Z,42.60
2019-05-06T12:55:56.640Z,42.60
2019-05-06T12:58:23.800Z,42.50
2019-05-06T13:00:53.954Z,42.60
2019-05-06T13:03:18.401Z,42.50
2019-05-06T13:05:45.515Z,42.60
2019-05-06T13:08:19.003Z,42.50
2019-05-06T13:10:41.983Z,42.50
2019-05-06T13:13:07.049Z,42.60
2019-05-06T13:15:34.180Z,42.60
2019-05-06T13:18:06.516Z,42.60
2019-05-06T13:20:34.076Z,42.60
2019-05-06T13:23:09.123Z,42.50
2019-05-06T13:25:32.810Z,42.90
2019-05-06T13:27:58.702Z,42.50
2019-05-06T13:30:25.853Z,42.50
2019-05-06T13:32:57.042Z,42.50
2019-05-06T13:35:24.116Z,42.50
2019-05-06T13:37:52.822Z,42.50
2019-05-06T13:40:18.506Z,42.40
2019-05-06T13:42:55.537Z,42.50
2019-05-06T13:45:22.735Z,42.50
2019-05-06T13:47:55.637Z,42.40
2019-05-06T13:50:24.942Z,42.50
2019-05-06T13:53:07.698Z,42.50
2019-05-06T13:55:19.317Z,42.30
2019-05-06T13:57:46.455Z,42.50
2019-05-06T14:00:13.720Z,42.40
2019-05-06T14:02:47.380Z,42.40
2019-05-06T14:05:14.487Z,42.40
2019-05-06T14:07:43.279Z,42.50
2019-05-06T14:10:09.036Z,42.40
2019-05-06T14:12:36.198Z,42.40
2019-05-06T14:15:04.607Z,43.00
2019-05-06T14:17:32.757Z,42.40
2019-05-06T14:19:58.907Z,42.40
2019-05-06T14:22:26.032Z,42.30
2019-05-06T14:24:57.997Z,42.30
2019-05-06T14:27:25.443Z,42.20
2019-05-06T14:29:56.766Z,42.30
2019-05-06T14:32:23.898Z,42.30
2019-05-06T14:34:52.094Z,42.30
2019-05-06T14:37:18.231Z,42.30
2019-05-06T14:39:54.012Z,42.30
2019-05-06T14:42:13.888Z,42.20
2019-05-06T14:44:43.183Z,42.20
2019-05-06T14:47:14.283Z,42.20
2019-05-06T14:49:43.167Z,42.20
2019-05-06T14:52:08.597Z,42.20
2019-05-06T14:54:42.095Z,42.20
2019-05-06T14:57:12.188Z,42.20
2019-05-06T14:59:38.425Z,42.30
2019-05-06T15:02:05.607Z,42.20
2019-05-06T15:04:32.766Z,42.20
2019-05-06T15:07:01.944Z,42.20
2019-05-06T15:09:27.056Z,42.20
2019-05-06T15:11:54.238Z,42.20
2019-05-06T15:14:22.697Z,42.20
2019-05-06T15:16:48.808Z,42.20
2019-05-06T15:19:15.950Z,42.20
2019-05-06T15:21:43.154Z,42.20
2019-05-06T15:24:10.337Z,42.20
2019-05-06T15:26:37.442Z,42.20
2019-05-06T15:29:04.560Z,42.20
2019-05-06T15:32:36.323Z,42.10
2019-05-06T15:35:12.667Z,42.10
2019-05-06T15:37:43.460Z,42.20
2019-05-06T15:40:12.164Z,42.20
2019-05-06T15:42:37.741Z,42.20
2019-05-06T15:45:04.927Z,42.20
2019-05-06T15:47:32.631Z,42.20
2019-05-06T15:49:59.177Z,42.20
2019-05-06T15:52:26.629Z,42.20
2019-05-06T15:54:53.715Z,42.20
2019-05-06T15:57:22.877Z,42.20
2019-05-06T15:59:48.158Z,42.30
2019-05-06T16:02:15.324Z,42.20
2019-05-06T16:04:43.001Z,42.30
2019-05-06T16:07:12.536Z,42.30
2019-05-06T16:09:36.939Z,42.30
2019-05-06T16:12:04.064Z,42.30
2019-05-06T16:14:34.482Z,42.30
2019-05-06T16:16:58.459Z,42.30
2019-05-06T16:19:25.749Z,42.40
2019-05-06T16:21:52.927Z,42.30
2019-05-06T16:24:23.995Z,42.30
2019-05-06T16:26:52.685Z,42.40
2019-05-06T16:29:19.422Z,42.40
2019-05-06T16:31:46.702Z,42.40
2019-05-06T16:34:14.647Z,42.50
2019-05-06T16:36:43.078Z,42.50
2019-05-06T16:39:08.295Z,42.50
2019-05-06T16:41:35.441Z,42.50
2019-05-06T16:44:02.634Z,42.50
2019-05-06T16:46:33.610Z,42.50
2019-05-06T16:48:56.880Z,42.50
2019-05-06T16:51:24.052Z,42.50
2019-05-06T16:53:52.557Z,42.50
2019-05-06T16:56:22.839Z,42.60
2019-05-06T16:58:52.682Z,42.60
2019-05-06T17:01:21.971Z,42.70
2019-05-06T17:03:52.664Z,42.70
2019-05-06T17:06:23.079Z,42.70
2019-05-06T17:08:49.678Z,42.70
2019-05-06T17:11:27.116Z,42.70
2019-05-06T17:13:44.694Z,42.80
2019-05-06T17:16:13.687Z,42.80
2019-05-06T17:18:38.227Z,42.80
2019-05-06T17:21:05.415Z,42.80
2019-05-06T17:23:32.547Z,42.80
2019-05-06T17:25:59.781Z,42.80
2019-05-06T17:28:46.662Z,42.80
2019-05-06T17:31:18.458Z,42.90
2019-05-06T17:33:45.608Z,42.80
2019-05-06T17:36:12.869Z,42.90
2019-05-06T17:38:44.455Z,42.90
2019-05-06T17:41:12.359Z,42.90
2019-05-06T17:43:40.923Z,42.90
2019-05-06T17:46:06.819Z,42.80
2019-05-06T17:48:42.383Z,42.90
2019-05-06T17:51:13.497Z,42.90
2019-05-06T17:53:38.731Z,42.90
2019-05-06T17:56:05.870Z,42.90
2019-05-06T17:58:33.314Z,42.90
2019-05-06T18:01:00.180Z,42.90
2019-05-06T18:03:27.419Z,42.90
2019-05-06T18:05:54.543Z,42.90
2019-05-06T18:08:22.981Z,42.90
2019-05-06T18:10:48.818Z,42.90
2019-05-06T18:13:15.938Z,42.90
2019-05-06T18:15:43.241Z,43.60
2019-05-06T18:18:10.220Z,43.00
2019-05-06T18:20:37.355Z,43.00
2019-05-06T18:23:04.527Z,43.00
2019-05-06T18:25:32.860Z,43.00
2019-05-06T18:27:58.822Z,43.00
2019-05-06T18:30:33.578Z,43.00
2019-05-06T18:32:53.143Z,43.00
2019-05-06T18:35:23.073Z,43.00
2019-05-06T18:37:48.502Z,43.00
2019-05-06T18:40:15.612Z,43.00
2019-05-06T18:42:43.122Z,43.10
2019-05-06T18:45:09.841Z,43.00
2019-05-06T18:47:37.000Z,43.10
2019-05-06T18:50:04.134Z,43.10
2019-05-06T18:52:32.597Z,43.10
2019-05-06T18:54:58.400Z,43.10
2019-05-06T18:57:25.595Z,43.10
2019-05-06T18:59:53.389Z,43.10
2019-05-06T19:02:19.877Z,43.10
2019-05-06T19:04:52.295Z,43.10
2019-05-06T19:07:18.506Z,43.10
2019-05-06T19:09:52.507Z,43.10
2019-05-06T19:12:29.284Z,43.10
2019-05-06T19:14:46.670Z,43.10
2019-05-06T19:17:13.888Z,43.10
2019-05-06T19:19:42.611Z,43.20
2019-05-06T19:22:08.241Z,43.10
2019-05-06T19:24:35.648Z,43.10
2019-05-06T19:27:02.750Z,43.10
2019-05-06T19:29:30.049Z,43.10
2019-05-06T19:31:57.149Z,43.10
2019-05-06T19:34:24.265Z,43.10
2019-05-06T19:36:52.824Z,43.10
2019-05-06T19:39:18.628Z,43.10
2019-05-06T19:41:45.767Z,43.10
2019-05-06T19:44:12.944Z,43.10
2019-05-06T19:46:42.263Z,43.10
2019-05-06T19:49:07.155Z,43.20
2019-05-06T19:51:34.322Z,43.10
2019-05-06T19:54:02.203Z,43.20
2019-05-06T19:56:28.656Z,43.80
2019-05-06T19:58:55.776Z,43.10
2019-05-06T20:01:23.013Z,43.20
2019-05-06T20:03:50.048Z,43.20
2019-05-06T20:06:55.201Z,43.20
2019-05-06T20:10:32.656Z,43.20
2019-05-06T20:13:02.606Z,43.20
2019-05-06T20:15:33.458Z,43.20
2019-05-06T20:18:02.887Z,43.20
2019-05-06T20:20:27.761Z,43.20
2019-05-06T20:22:54.853Z,43.20
2019-05-06T20:25:22.130Z,43.10
2019-05-06T20:27:49.146Z,43.20
2019-05-06T20:30:16.324Z,43.20
2019-05-06T20:32:43.488Z,43.20
2019-05-06T20:35:12.874Z,43.20
2019-05-06T20:37:37.807Z,43.20
2019-05-06T20:40:04.907Z,43.20
2019-05-06T20:42:32.751Z,43.30
2019-05-06T20:44:59.447Z,43.20
2019-05-06T20:47:26.606Z,43.20
2019-05-06T20:49:53.764Z,43.30
2019-05-06T20:52:22.912Z,43.20
2019-05-06T20:54:48.153Z,43.30
2019-05-06T20:57:15.235Z,43.30
2019-05-06T20:59:42.346Z,43.30
2019-05-06T21:02:09.435Z,43.30
2019-05-06T21:04:36.575Z,43.30
2019-05-06T21:07:03.749Z,43.30
2019-05-06T21:09:32.088Z,43.90
2019-05-06T21:11:58.133Z,43.30
2019-05-06T21:14:25.273Z,43.30
2019-05-06T21:16:52.482Z,43.30
2019-05-06T21:19:19.638Z,43.30
2019-05-06T21:21:46.776Z,43.30
2019-05-06T21:24:13.863Z,43.30
2019-05-06T21:26:42.866Z,43.60
2019-05-06T21:29:08.346Z,43.30
2019-05-06T21:31:35.519Z,43.30
2019-05-06T21:34:02.949Z,43.30
2019-05-06T21:36:30.174Z,43.30
2019-05-06T21:38:57.316Z,43.30
2019-05-06T21:41:24.454Z,43.30
2019-05-06T21:43:51.620Z,43.30
2019-05-06T21:46:18.795Z,43.30
2019-05-06T21:48:45.926Z,43.30
2019-05-06T21:51:13.395Z,43.30
2019-05-06T21:53:40.533Z,43.30
2019-05-06T21:56:07.680Z,43.30
2019-05-06T21:58:34.789Z,43.30
2019-05-06T22:01:04.703Z,43.30
2019-05-06T22:03:32.693Z,43.30
2019-05-06T22:05:59.091Z,43.30
2019-05-06T22:08:26.166Z,43.30
2019-05-06T22:10:53.310Z,43.30
2019-05-06T22:13:21.847Z,43.30
2019-05-06T22:15:47.571Z,43.30
2019-05-06T22:18:14.706Z,43.40
2019-05-06T22:20:47.608Z,43.30
2019-05-06T22:23:14.941Z,43.30
2019-05-06T22:25:42.075Z,43.30
2019-05-06T22:28:09.182Z,43.30
2019-05-06T22:30:36.310Z,43.30
2019-05-06T22:33:03.677Z,43.40
2019-05-06T22:35:32.519Z,43.30
2019-05-06T22:37:58.109Z,43.30
2019-05-06T22:40:25.258Z,43.30
2019-05-06T22:42:52.907Z,43.30
2019-05-06T22:45:19.470Z,43.40
2019-05-06T22:47:46.661Z,43.30
2019-05-06T22:50:13.775Z,43.40
2019-05-06T22:52:42.057Z,43.40
2019-05-06T22:55:07.983Z,43.40
2019-05-06T22:57:35.135Z,43.40
2019-05-06T23:00:03.531Z,43.40
2019-05-06T23:02:34.818Z,43.40
2019-05-06T23:05:04.217Z,43.40
2019-05-06T23:07:29.111Z,43.40
2019-05-06T23:09:56.230Z,43.30
2019-05-06T23:12:23.453Z,43.40
2019-05-06T23:14:52.375Z,43.50
2019-05-06T23:17:18.342Z,43.50
2019-05-06T23:19:45.549Z,43.40
2019-05-06T23:22:12.686Z,43.40
2019-05-06T23:24:39.772Z,43.40
2019-05-06T23:27:06.863Z,43.50
2019-05-06T23:29:33.949Z,43.50
2019-05-06T23:32:02.951Z,43.40
2019-05-06T23:34:28.308Z,43.50
2019-05-06T23:37:31.664Z,43.40
2019-05-06T23:40:12.529Z,43.50
2019-05-06T23:42:49.051Z,43.50
2019-05-06T23:45:27.730Z,43.40
2019-05-06T23:48:06.265Z,43.50
2019-05-06T23:50:44.862Z,43.50
2019-05-06T23:53:23.420Z,43.50
2019-05-06T23:56:02.826Z,43.50
2019-05-06T23:58:29.320Z,43.50
